Time;durP1;ratioP1;P1;durP2;ratioP2;P2;SDS_P1;SDS_P2;PMS_P1;PMS_P2;Temp;Humidity;BMP_temperature;BMP_pressure;BME280_temperature;BME280_humidity;BME280_pressure;Samples;Min_cycle;Max_cycle;Signal;HPM_P1;HPM_P2
2020/12/02 00:01:20;;;;;;;46.10;24.87;;;;;;;;;;5095276;28;20099;-59
2020/12/02 00:03:50;;;;;;;45.90;26.03;;;;;;;;;;5096105;28;20044;-60
2020/12/02 00:06:16;;;;;;;42.73;23.10;;;;;;;;;;5095527;28;20141;-60
2020/12/02 00:08:41;;;;;;;41.93;24.50;;;;;;;;;;5092011;28;20024;-59
2020/12/02 00:11:10;;;;;;;46.83;25.63;;;;;;;;;;5095774;28;20325;-60
2020/12/02 00:13:37;;;;;;;42.63;24.57;;;;;;;;;;5095319;28;20040;-60
2020/12/02 00:16:06;;;;;;;45.70;24.37;;;;;;;;;;5095515;28;20385;-59
2020/12/02 00:18:33;;;;;;;45.83;25.47;;;;;;;;;;5092381;28;20110;-59
2020/12/02 00:20:58;;;;;;;44.63;25.40;;;;;;;;;;5095039;28;20027;-60
2020/12/02 00:23:23;;;;;;;44.07;24.57;;;;;;;;;;5094116;28;20141;-60
2020/12/02 00:25:49;;;;;;;45.57;23.97;;;;;;;;;;5095099;28;20027;-60
2020/12/02 00:28:14;;;;;;;44.70;24.37;;;;;;;;;;5091666;28;20016;-60
2020/12/02 00:30:41;;;;;;;44.60;23.03;;;;;;;;;;5093455;28;20016;-60
2020/12/02 00:33:06;;;;;;;43.30;23.20;;;;;;;;;;5092061;28;20023;-60
2020/12/02 00:35:32;;;;;;;43.40;24.70;;;;;;;;;;5094914;28;20024;-60
2020/12/02 00:37:57;;;;;;;43.03;23.10;;;;;;;;;;5093304;28;20016;-61
2020/12/02 00:40:22;;;;;;;42.90;24.30;;;;;;;;;;5093511;28;20024;-60
2020/12/02 00:42:48;;;;;;;43.30;24.13;;;;;;;;;;5095240;28;20032;-60
2020/12/02 00:45:13;;;;;;;41.93;23.30;;;;;;;;;;5095235;28;20070;-58
2020/12/02 00:47:39;;;;;;;44.10;23.57;;;;;;;;;;5094900;28;20027;-60
2020/12/02 00:50:06;;;;;;;41.40;23.07;;;;;;;;;;5092024;28;20089;-60
2020/12/02 00:52:31;;;;;;;40.13;21.57;;;;;;;;;;5092561;28;20366;-60
2020/12/02 00:54:57;;;;;;;44.70;23.57;;;;;;;;;;5094846;28;20027;-59
2020/12/02 00:57:25;;;;;;;40.73;22.43;;;;;;;;;;5094404;28;20022;-59
2020/12/02 00:59:52;;;;;;;42.83;21.17;;;;;;;;;;5090745;28;20488;-60
2020/12/02 01:02:36;;;;;;;43.97;24.10;;;;;;;;;;5095218;28;20069;-60
2020/12/02 01:05:03;;;;;;;43.80;23.77;;;;;;;;;;5088921;28;20085;-60
2020/12/02 01:07:28;;;;;;;42.77;23.43;;;;;;;;;;5094029;28;20035;-59
2020/12/02 01:09:54;;;;;;;42.37;22.97;;;;;;;;;;5091244;28;20027;-60
2020/12/02 01:12:19;;;;;;;43.93;23.90;;;;;;;;;;5094071;28;20093;-60
2020/12/02 01:14:44;;;;;;;44.57;23.33;;;;;;;;;;5094515;28;20282;-60
2020/12/02 01:17:10;;;;;;;48.47;24.07;;;;;;;;;;5093825;28;20016;-60
2020/12/02 01:19:38;;;;;;;45.63;23.70;;;;;;;;;;5091436;28;20524;-60
2020/12/02 01:22:38;;;;;;;44.50;22.83;;;;;;;;;;5093776;28;20139;-59
2020/12/02 01:25:06;;;;;;;46.20;25.90;;;;;;;;;;5012037;28;20038;-60
2020/12/02 01:27:37;;;;;;;40.00;21.63;;;;;;;;;;5011086;28;20485;-59
2020/12/02 01:30:06;;;;;;;44.90;23.07;;;;;;;;;;5008718;28;20032;-60
2020/12/02 01:32:32;;;;;;;41.50;23.50;;;;;;;;;;5012171;28;20048;-60
2020/12/02 01:34:57;;;;;;;42.23;22.47;;;;;;;;;;5008829;28;20427;-60
2020/12/02 01:37:25;;;;;;;46.93;24.47;;;;;;;;;;5011296;28;20229;-60
2020/12/02 01:39:56;;;;;;;42.90;23.43;;;;;;;;;;5008295;28;20084;-59
2020/12/02 01:42:22;;;;;;;43.33;23.43;;;;;;;;;;5011851;28;20057;-60
2020/12/02 01:44:47;;;;;;;42.67;23.20;;;;;;;;;;5010772;28;20054;-60
2020/12/02 01:47:12;;;;;;;46.33;23.80;;;;;;;;;;5011228;28;20026;-60
2020/12/02 01:49:43;;;;;;;44.07;24.30;;;;;;;;;;5008760;28;20056;-59
2020/12/02 01:52:08;;;;;;;48.47;25.03;;;;;;;;;;5010987;28;20548;-59
2020/12/02 01:54:45;;;;;;;40.17;23.17;;;;;;;;;;4994491;28;20029;-60
2020/12/02 01:57:16;;;;;;;44.47;23.10;;;;;;;;;;5011529;28;20021;-60
2020/12/02 01:59:47;;;;;;;42.23;22.87;;;;;;;;;;5073737;28;20032;-60
2020/12/02 02:02:21;;;;;;;43.83;23.10;;;;;;;;;;5093441;28;20020;-59
2020/12/02 02:04:49;;;;;;;43.67;22.17;;;;;;;;;;5093482;28;20043;-59
2020/12/02 02:07:17;;;;;;;45.50;23.03;;;;;;;;;;5093136;28;20043;-59
2020/12/02 02:09:44;;;;;;;45.40;23.47;;;;;;;;;;5090224;28;20386;-59
2020/12/02 02:12:27;;;;;;;43.73;23.33;;;;;;;;;;5092571;28;20043;-56
2020/12/02 02:15:02;;;;;;;40.43;22.73;;;;;;;;;;5093458;28;20024;-56
2020/12/02 02:17:27;;;;;;;47.55;23.48;;;;;;;;;;5092704;28;20016;-57
2020/12/02 02:19:53;;;;;;;45.30;24.00;;;;;;;;;;5089935;28;20032;-56
2020/12/02 02:22:18;;;;;;;43.57;23.17;;;;;;;;;;5091333;28;20036;-57
2020/12/02 02:24:45;;;;;;;46.27;24.07;;;;;;;;;;5091904;28;20024;-56
2020/12/02 02:27:10;;;;;;;46.13;23.67;;;;;;;;;;5092871;28;20141;-56
2020/12/02 02:29:37;;;;;;;42.73;22.17;;;;;;;;;;5089830;28;20020;-57
2020/12/02 02:32:08;;;;;;;48.40;24.40;;;;;;;;;;5090544;28;20038;-55
2020/12/02 02:34:34;;;;;;;43.93;22.90;;;;;;;;;;5087336;28;20028;-56
2020/12/02 02:37:01;;;;;;;47.37;24.80;;;;;;;;;;5092314;28;20482;-56
2020/12/02 02:39:26;;;;;;;45.37;24.57;;;;;;;;;;5089979;28;20467;-57
2020/12/02 02:41:58;;;;;;;42.07;23.17;;;;;;;;;;5092609;28;20027;-55
2020/12/02 02:44:23;;;;;;;45.27;23.43;;;;;;;;;;5092439;28;20023;-51
2020/12/02 02:46:49;;;;;;;41.17;22.63;;;;;;;;;;5092433;28;20024;-53
2020/12/02 02:49:14;;;;;;;43.37;22.93;;;;;;;;;;5089132;28;20466;-54
2020/12/02 02:51:40;;;;;;;40.97;21.77;;;;;;;;;;5092575;28;20016;-56
2020/12/02 02:54:05;;;;;;;49.80;23.27;;;;;;;;;;5092417;28;20359;-53
2020/12/02 02:56:30;;;;;;;43.80;23.63;;;;;;;;;;5092883;28;20015;-58
2020/12/02 02:58:55;;;;;;;38.03;21.23;;;;;;;;;;5087836;28;20047;-57
2020/12/02 03:01:20;;;;;;;42.20;21.80;;;;;;;;;;5092388;28;20423;-55
2020/12/02 03:03:46;;;;;;;38.07;21.13;;;;;;;;;;5092320;28;20511;-54
2020/12/02 03:06:11;;;;;;;38.03;22.10;;;;;;;;;;5092269;28;20008;-56
2020/12/02 03:08:36;;;;;;;36.70;20.30;;;;;;;;;;5088974;28;20035;-55
2020/12/02 03:11:04;;;;;;;41.00;22.43;;;;;;;;;;5091481;28;20020;-54
2020/12/02 03:13:32;;;;;;;40.53;22.90;;;;;;;;;;5092555;28;20024;-53
2020/12/02 03:15:59;;;;;;;38.80;21.57;;;;;;;;;;5092149;28;20016;-53
2020/12/02 03:18:25;;;;;;;37.90;21.13;;;;;;;;;;5088431;28;20579;-55
2020/12/02 03:20:54;;;;;;;37.80;20.77;;;;;;;;;;5092173;28;20052;-52
2020/12/02 03:23:20;;;;;;;38.97;21.57;;;;;;;;;;5091783;28;20444;-53
2020/12/02 03:25:46;;;;;;;37.50;20.77;;;;;;;;;;5092571;28;20038;-55
2020/12/02 03:28:11;;;;;;;36.67;19.67;;;;;;;;;;5088767;28;20042;-57
2020/12/02 03:30:37;;;;;;;36.77;19.80;;;;;;;;;;5091791;28;20774;-57
2020/12/02 03:33:04;;;;;;;38.47;21.00;;;;;;;;;;5091485;28;20070;-56
2020/12/02 03:35:30;;;;;;;39.07;22.97;;;;;;;;;;5091436;28;20055;-55
2020/12/02 03:37:55;;;;;;;37.47;21.40;;;;;;;;;;5090780;28;20043;-57
2020/12/02 03:40:20;;;;;;;36.00;19.80;;;;;;;;;;5089819;28;20020;-56
2020/12/02 03:42:45;;;;;;;38.97;21.57;;;;;;;;;;5091821;28;20016;-55
2020/12/02 03:45:11;;;;;;;38.40;20.67;;;;;;;;;;5090772;28;20068;-55
2020/12/02 03:47:37;;;;;;;38.57;20.87;;;;;;;;;;5091780;28;20498;-56
2020/12/02 03:50:03;;;;;;;41.63;21.13;;;;;;;;;;5088850;28;20057;-54
2020/12/02 03:52:29;;;;;;;39.10;21.77;;;;;;;;;;5091277;28;20023;-55
2020/12/02 03:54:54;;;;;;;37.53;21.50;;;;;;;;;;5092225;28;20016;-55
2020/12/02 03:57:19;;;;;;;40.73;21.73;;;;;;;;;;5090409;28;20106;-56
2020/12/02 03:59:44;;;;;;;35.30;19.90;;;;;;;;;;5088754;28;20320;-55
2020/12/02 04:02:09;;;;;;;41.30;22.80;;;;;;;;;;5091570;28;20043;-56
2020/12/02 04:04:35;;;;;;;41.43;22.50;;;;;;;;;;5089410;28;20118;-57
2020/12/02 04:07:00;;;;;;;41.23;22.13;;;;;;;;;;5091514;28;20099;-53
2020/12/02 04:09:25;;;;;;;40.23;22.10;;;;;;;;;;5088671;28;20153;-55
2020/12/02 04:11:50;;;;;;;41.13;21.87;;;;;;;;;;5091200;28;20493;-55
2020/12/02 04:14:15;;;;;;;38.50;20.40;;;;;;;;;;5091877;28;20043;-53
2020/12/02 04:16:41;;;;;;;39.20;21.33;;;;;;;;;;5091535;28;20098;-56
2020/12/02 04:19:06;;;;;;;34.73;20.43;;;;;;;;;;5088177;28;20107;-57
2020/12/02 04:21:32;;;;;;;43.93;21.47;;;;;;;;;;5091225;28;20389;-56
2020/12/02 04:23:57;;;;;;;41.30;21.53;;;;;;;;;;5083242;28;20478;-54
2020/12/02 04:26:22;;;;;;;41.43;22.40;;;;;;;;;;5091785;28;20027;-58
2020/12/02 04:28:48;;;;;;;36.70;19.63;;;;;;;;;;5087520;28;20024;-55
2020/12/02 04:31:13;;;;;;;38.03;20.47;;;;;;;;;;5091467;28;20111;-57
2020/12/02 04:33:38;;;;;;;41.03;21.60;;;;;;;;;;5091253;28;20347;-56
2020/12/02 04:36:04;;;;;;;41.47;22.70;;;;;;;;;;5091417;28;20020;-56
2020/12/02 04:38:29;;;;;;;41.60;21.43;;;;;;;;;;5087705;28;20024;-55
2020/12/02 04:40:54;;;;;;;40.60;22.27;;;;;;;;;;5090272;28;20024;-57
2020/12/02 04:43:24;;;;;;;38.87;20.63;;;;;;;;;;5091472;28;20031;-56
2020/12/02 04:45:49;;;;;;;41.93;20.93;;;;;;;;;;5091136;28;20027;-58
2020/12/02 04:48:17;;;;;;;38.97;21.00;;;;;;;;;;5091189;28;20020;-55
2020/12/02 04:50:42;;;;;;;40.13;21.23;;;;;;;;;;5095105;28;20024;-54
2020/12/02 04:53:10;;;;;;;41.03;21.23;;;;;;;;;;5094365;28;20035;-57
2020/12/02 04:55:35;;;;;;;41.43;21.63;;;;;;;;;;5094935;28;20032;-56
2020/12/02 04:58:01;;;;;;;38.50;20.60;;;;;;;;;;5092909;28;20038;-57
2020/12/02 05:00:29;;;;;;;39.50;22.13;;;;;;;;;;5093668;28;20474;-56
2020/12/02 05:03:04;;;;;;;39.40;21.10;;;;;;;;;;5094457;28;20024;-54
2020/12/02 05:05:29;;;;;;;41.50;21.85;;;;;;;;;;5094880;28;20027;-55
2020/12/02 05:07:54;;;;;;;40.23;22.27;;;;;;;;;;5093100;28;20024;-54
2020/12/02 05:10:19;;;;;;;43.77;20.77;;;;;;;;;;5092530;28;20034;-54
2020/12/02 05:12:46;;;;;;;39.07;21.10;;;;;;;;;;5094776;28;20063;-54
2020/12/02 05:15:17;;;;;;;43.40;21.20;;;;;;;;;;5093892;28;20038;-57
2020/12/02 05:17:43;;;;;;;41.10;20.53;;;;;;;;;;5092732;28;20016;-55
2020/12/02 05:20:12;;;;;;;39.20;20.43;;;;;;;;;;5091248;28;20474;-56
2020/12/02 05:22:55;;;;;;;38.00;20.97;;;;;;;;;;5093821;28;20111;-54
2020/12/02 05:25:21;;;;;;;40.77;19.90;;;;;;;;;;5086945;28;20012;-57
2020/12/02 05:27:46;;;;;;;40.53;20.67;;;;;;;;;;5093672;28;20015;-57
2020/12/02 05:30:15;;;;;;;40.33;21.83;;;;;;;;;;5090944;28;20107;-56
2020/12/02 05:32:40;;;;;;;40.13;21.23;;;;;;;;;;5094171;28;20082;-57
2020/12/02 05:35:12;;;;;;;39.73;20.60;;;;;;;;;;5093731;28;20470;-55
2020/12/02 05:37:40;;;;;;;37.80;19.50;;;;;;;;;;5093222;28;20023;-56
2020/12/02 05:40:06;;;;;;;38.30;20.30;;;;;;;;;;5088897;28;20398;-56
2020/12/02 05:42:35;;;;;;;39.40;20.57;;;;;;;;;;5093657;28;20032;-55
2020/12/02 05:45:03;;;;;;;39.47;21.07;;;;;;;;;;5093630;28;20019;-57
2020/12/02 05:47:28;;;;;;;41.47;19.43;;;;;;;;;;5093014;28;20432;-57
2020/12/02 05:49:58;;;;;;;35.87;18.67;;;;;;;;;;5091340;28;20046;-57
2020/12/02 05:52:26;;;;;;;39.13;19.97;;;;;;;;;;5093492;28;20038;-57
2020/12/02 05:54:56;;;;;;;37.87;19.87;;;;;;;;;;5093896;28;20027;-54
2020/12/02 05:57:21;;;;;;;36.60;19.97;;;;;;;;;;5092601;28;20020;-54
2020/12/02 05:59:47;;;;;;;39.17;20.00;;;;;;;;;;5089365;28;20024;-57
2020/12/02 06:02:13;;;;;;;35.77;18.30;;;;;;;;;;5093125;28;20062;-56
2020/12/02 06:04:39;;;;;;;39.03;20.73;;;;;;;;;;5093273;28;20585;-58
2020/12/02 06:07:04;;;;;;;37.13;20.70;;;;;;;;;;5092023;28;20052;-55
2020/12/02 06:09:39;;;;;;;36.17;20.63;;;;;;;;;;5090120;28;20027;-57
2020/12/02 06:12:05;;;;;;;37.93;19.97;;;;;;;;;;5092987;28;20015;-57
2020/12/02 06:14:32;;;;;;;34.73;19.53;;;;;;;;;;5092452;28;20367;-57
2020/12/02 06:16:57;;;;;;;38.90;20.87;;;;;;;;;;5082812;28;20020;-57
2020/12/02 06:19:43;;;;;;;38.00;19.97;;;;;;;;;;5085548;28;20351;-55
2020/12/02 06:22:08;;;;;;;40.17;21.08;;;;;;;;;;5068073;28;20035;-57
2020/12/02 06:24:41;;;;;;;38.77;20.13;;;;;;;;;;5091038;28;20497;-57
2020/12/02 06:27:15;;;;;;;36.33;21.43;;;;;;;;;;5092752;28;20008;-55
2020/12/02 06:29:51;;;;;;;39.73;21.67;;;;;;;;;;5089821;28;20012;-58
2020/12/02 06:32:19;;;;;;;41.43;22.63;;;;;;;;;;5086584;28;20524;-56
2020/12/02 06:34:44;;;;;;;43.23;21.97;;;;;;;;;;5085616;28;20081;-57
2020/12/02 06:37:13;;;;;;;36.83;19.80;;;;;;;;;;5086662;28;20016;-57
2020/12/02 06:39:43;;;;;;;38.63;22.13;;;;;;;;;;5087456;28;20035;-56
2020/12/02 06:42:25;;;;;;;41.33;21.27;;;;;;;;;;5087333;28;20058;-54
2020/12/02 06:45:00;;;;;;;38.90;21.17;;;;;;;;;;5092181;28;20026;-57
2020/12/02 06:47:28;;;;;;;40.50;21.15;;;;;;;;;;5092541;28;20024;-56
2020/12/02 06:49:55;;;;;;;37.53;19.67;;;;;;;;;;5086425;28;20020;-58
2020/12/02 06:52:32;;;;;;;37.73;20.87;;;;;;;;;;5082883;28;20019;-56
2020/12/02 06:54:58;;;;;;;41.97;20.60;;;;;;;;;;5091720;28;20371;-57
2020/12/02 06:57:25;;;;;;;40.43;22.80;;;;;;;;;;5091487;28;20371;-53
2020/12/02 06:59:56;;;;;;;43.10;24.83;;;;;;;;;;5087673;28;20028;-56
2020/12/02 07:02:42;;;;;;;39.63;21.43;;;;;;;;;;5091314;28;20027;-57
2020/12/02 07:05:18;;;;;;;43.70;22.60;;;;;;;;;;5088556;28;20106;-53
2020/12/02 07:07:43;;;;;;;42.40;23.63;;;;;;;;;;5091512;28;20031;-56
2020/12/02 07:10:16;;;;;;;39.67;21.93;;;;;;;;;;5087238;28;20379;-55
2020/12/02 07:12:41;;;;;;;39.13;22.40;;;;;;;;;;5090387;28;20407;-56
2020/12/02 07:15:07;;;;;;;38.97;22.87;;;;;;;;;;5091933;28;20012;-57
2020/12/02 07:17:32;;;;;;;38.50;22.13;;;;;;;;;;5091185;28;20039;-56
2020/12/02 07:20:03;;;;;;;40.53;21.43;;;;;;;;;;5089453;28;20106;-57
2020/12/02 07:22:31;;;;;;;41.23;21.90;;;;;;;;;;5091587;28;20039;-56
2020/12/02 07:25:01;;;;;;;37.97;21.47;;;;;;;;;;5092396;28;20032;-53
2020/12/02 07:27:26;;;;;;;39.23;21.93;;;;;;;;;;5092404;28;20016;-55
2020/12/02 07:29:58;;;;;;;42.00;21.73;;;;;;;;;;5089218;28;20046;-56
2020/12/02 07:32:23;;;;;;;40.33;21.63;;;;;;;;;;5092330;28;20020;-56
2020/12/02 07:34:49;;;;;;;40.27;21.50;;;;;;;;;;5091820;28;20081;-54
2020/12/02 07:37:16;;;;;;;38.27;20.33;;;;;;;;;;5091780;28;20082;-54
2020/12/02 07:39:46;;;;;;;40.23;21.97;;;;;;;;;;5088096;28;20024;-55
2020/12/02 07:42:11;;;;;;;38.50;21.87;;;;;;;;;;5091881;28;20031;-56
2020/12/02 07:44:40;;;;;;;38.17;21.57;;;;;;;;;;5092071;28;20036;-56
2020/12/02 07:47:08;;;;;;;39.13;21.60;;;;;;;;;;5091744;28;20536;-56
2020/12/02 07:49:35;;;;;;;38.27;21.70;;;;;;;;;;5088939;28;20028;-54
2020/12/02 07:52:19;;;;;;;41.53;21.87;;;;;;;;;;5091445;28;20024;-55
2020/12/02 07:54:44;;;;;;;37.93;20.97;;;;;;;;;;5092049;28;20019;-56
2020/12/02 07:57:12;;;;;;;36.67;20.70;;;;;;;;;;5091888;28;20523;-55
2020/12/02 07:59:41;;;;;;;36.43;20.97;;;;;;;;;;5089074;28;20028;-56
2020/12/02 08:02:14;;;;;;;36.30;20.77;;;;;;;;;;5091677;28;20062;-56
2020/12/02 08:04:48;;;;;;;37.20;21.13;;;;;;;;;;5091793;28;20121;-56
2020/12/02 08:07:14;;;;;;;35.67;20.70;;;;;;;;;;5091543;28;20024;-54
2020/12/02 08:09:39;;;;;;;38.83;22.20;;;;;;;;;;5088697;28;20501;-57
2020/12/02 08:12:07;;;;;;;42.03;21.57;;;;;;;;;;5092653;28;20056;-56
2020/12/02 08:14:34;;;;;;;39.53;21.63;;;;;;;;;;5090660;28;20031;-55
2020/12/02 08:17:04;;;;;;;36.50;21.30;;;;;;;;;;5091373;28;20072;-57
2020/12/02 08:19:31;;;;;;;36.70;21.73;;;;;;;;;;5088423;28;20024;-57
2020/12/02 08:21:57;;;;;;;36.90;21.33;;;;;;;;;;5094501;28;20052;-57
2020/12/02 08:24:33;;;;;;;36.17;21.03;;;;;;;;;;5095415;28;20471;-56
2020/12/02 08:26:58;;;;;;;;;;;;;;;;;;5095499;28;20013;-57
2020/12/02 08:29:24;;;;;;;32.95;19.55;;;;;;;;;;5091613;28;19926;-55
2020/12/02 08:31:59;;;;;;;35.17;19.20;;;;;;;;;;5095045;28;20069;-55
2020/12/02 08:34:24;;;;;;;35.78;21.58;;;;;;;;;;5095295;28;20016;-57
2020/12/02 08:37:10;;;;;;;35.20;21.23;;;;;;;;;;5095007;28;20042;-56
2020/12/02 08:39:35;;;;;;;34.35;20.27;;;;;;;;;;5050538;28;20371;-56
2020/12/02 08:42:00;;;;;;;33.03;20.00;;;;;;;;;;5095198;28;20020;-57
2020/12/02 08:44:25;;;;;;;34.57;21.43;;;;;;;;;;5095124;28;20024;-55
2020/12/02 08:46:54;;;;;;;31.40;20.67;;;;;;;;;;5094067;28;20017;-56
2020/12/02 08:49:22;;;;;;;32.57;20.10;;;;;;;;;;5091180;28;20370;-57
2020/12/02 08:51:47;;;;;;;34.17;19.73;;;;;;;;;;5093907;28;20012;-58
2020/12/02 08:54:14;;;;;;;30.10;19.17;;;;;;;;;;5094844;28;20027;-55
2020/12/02 08:56:39;;;;;;;30.17;19.70;;;;;;;;;;5093171;28;20024;-57
2020/12/02 08:59:06;;;;;;;29.73;19.17;;;;;;;;;;5091758;28;20024;-55
2020/12/02 09:01:31;;;;;;;30.23;18.93;;;;;;;;;;5094806;28;20024;-57
2020/12/02 09:03:56;;;;;;;29.53;18.13;;;;;;;;;;5094818;28;20016;-56
2020/12/02 09:06:21;;;;;;;29.77;17.90;;;;;;;;;;5094798;28;20020;-56
2020/12/02 09:08:47;;;;;;;29.80;18.13;;;;;;;;;;5081711;28;20024;-56
2020/12/02 09:11:21;;;;;;;27.27;18.33;;;;;;;;;;5094873;28;20023;-56
2020/12/02 09:13:46;;;;;;;29.30;19.53;;;;;;;;;;5094672;28;20559;-56
2020/12/02 09:16:11;;;;;;;29.17;19.20;;;;;;;;;;5094451;28;20051;-57
2020/12/02 09:18:37;;;;;;;27.00;19.40;;;;;;;;;;5091515;28;20390;-57
2020/12/02 09:21:02;;;;;;;29.13;19.87;;;;;;;;;;5093423;28;20028;-56
2020/12/02 09:23:27;;;;;;;30.93;18.10;;;;;;;;;;5093907;28;20044;-56
2020/12/02 09:25:52;;;;;;;26.93;18.57;;;;;;;;;;5094299;28;20012;-54
2020/12/02 09:28:17;;;;;;;27.90;17.90;;;;;;;;;;5090763;28;20012;-55
2020/12/02 09:30:43;;;;;;;29.17;18.87;;;;;;;;;;5087591;28;20070;-57
2020/12/02 09:33:08;;;;;;;28.30;17.03;;;;;;;;;;5092356;28;20032;-56
2020/12/02 09:35:34;;;;;;;25.43;15.73;;;;;;;;;;5094113;28;20026;-52
2020/12/02 09:38:00;;;;;;;26.93;16.97;;;;;;;;;;5092117;28;20013;-54
2020/12/02 09:40:25;;;;;;;26.83;17.50;;;;;;;;;;5091200;28;20119;-57
2020/12/02 09:42:56;;;;;;;26.93;15.93;;;;;;;;;;5093833;28;20020;-56
2020/12/02 09:45:34;;;;;;;28.53;18.47;;;;;;;;;;5094197;28;20375;-56
2020/12/02 09:48:03;;;;;;;25.20;15.53;;;;;;;;;;5091066;28;20463;-57
2020/12/02 09:50:28;;;;;;;23.97;17.47;;;;;;;;;;5092836;28;20466;-56
2020/12/02 09:52:53;;;;;;;27.03;16.67;;;;;;;;;;5091146;28;20065;-56
2020/12/02 09:55:23;;;;;;;26.20;17.07;;;;;;;;;;5094064;28;20111;-56
2020/12/02 09:57:49;;;;;;;24.07;16.40;;;;;;;;;;5091936;28;20359;-54
2020/12/02 10:00:16;;;;;;;26.33;15.93;;;;;;;;;;5091488;28;20020;-55
2020/12/02 10:02:47;;;;;;;22.33;15.20;;;;;;;;;;5093785;28;20082;-56
2020/12/02 10:05:12;;;;;;;21.30;12.87;;;;;;;;;;5081473;28;20021;-55
2020/12/02 10:07:53;;;;;;;20.10;14.47;;;;;;;;;;5089161;28;20355;-54
2020/12/02 10:10:30;;;;;;;21.00;13.97;;;;;;;;;;5091572;28;20012;-54
2020/12/02 10:13:01;;;;;;;24.27;14.20;;;;;;;;;;5092172;28;20086;-55
2020/12/02 10:15:39;;;;;;;20.23;14.10;;;;;;;;;;5087828;28;20024;-50
2020/12/02 10:18:09;;;;;;;18.05;12.90;;;;;;;;;;5091103;28;20486;-55
2020/12/02 10:20:41;;;;;;;16.95;13.05;;;;;;;;;;5092391;28;20026;-55
2020/12/02 10:23:21;;;;;;;17.70;13.00;;;;;;;;;;5092692;28;20077;-55
2020/12/02 10:25:55;;;;;;;18.92;14.25;;;;;;;;;;5093401;28;20024;-57
2020/12/02 10:28:28;;;;;;;18.50;13.88;;;;;;;;;;5074910;28;20008;-56
2020/12/02 10:31:08;;;;;;;19.85;14.15;;;;;;;;;;5092629;28;20035;-53
2020/12/02 10:33:54;;;;;;;18.98;12.50;;;;;;;;;;5092870;28;20035;-56
2020/12/02 10:36:21;;;;;;;17.65;13.23;;;;;;;;;;5076548;28;20474;-52
2020/12/02 10:38:51;;;;;;;14.52;11.23;;;;;;;;;;5089958;28;20032;-55
2020/12/02 10:41:22;;;;;;;16.08;12.13;;;;;;;;;;5093047;28;20024;-54
2020/12/02 10:43:57;;;;;;;19.55;13.20;;;;;;;;;;5092112;28;20020;-55
2020/12/02 10:46:22;;;;;;;;;;;;;;;;;;5092977;28;20401;-51
2020/12/02 10:49:03;;;;;;;16.90;13.65;;;;;;;;;;5089847;28;19998;-56
2020/12/02 10:51:30;;;;;;;18.40;14.57;;;;;;;;;;5072817;28;20286;-54
2020/12/02 10:53:55;;;;;;;17.83;14.63;;;;;;;;;;5088303;28;20447;-52
2020/12/02 10:56:22;;;;;;;17.70;14.35;;;;;;;;;;5092972;28;20114;-55
2020/12/02 10:58:51;;;;;;;17.95;14.32;;;;;;;;;;5089702;28;20466;-56
2020/12/02 11:01:17;;;;;;;19.10;16.98;;;;;;;;;;5092704;28;20031;-57
2020/12/02 11:03:42;;;;;;;17.67;14.68;;;;;;;;;;5092476;28;20024;-57
2020/12/02 11:06:16;;;;;;;19.58;14.32;;;;;;;;;;5092581;28;20020;-53
2020/12/02 11:08:53;;;;;;;17.33;12.83;;;;;;;;;;5081931;28;20360;-56
2020/12/02 11:11:27;;;;;;;19.98;13.65;;;;;;;;;;5092463;28;20047;-55
2020/12/02 11:13:59;;;;;;;18.15;13.73;;;;;;;;;;5092169;28;20032;-52
2020/12/02 11:16:35;;;;;;;17.77;15.00;;;;;;;;;;5090764;28;20453;-53
2020/12/02 11:19:12;;;;;;;20.90;17.90;;;;;;;;;;5089010;28;20046;-54
2020/12/02 11:21:41;;;;;;;19.10;14.57;;;;;;;;;;5084087;28;20024;-55
2020/12/02 11:24:15;;;;;;;19.45;14.45;;;;;;;;;;5091468;28;20028;-54
2020/12/02 11:26:41;;;;;;;17.60;13.30;;;;;;;;;;5091864;28;20417;-55
2020/12/02 11:29:11;;;;;;;21.73;17.00;;;;;;;;;;5088787;28;20095;-56
2020/12/02 11:31:39;;;;;;;19.83;15.02;;;;;;;;;;5091847;28;20225;-54
2020/12/02 11:34:04;;;;;;;17.27;13.60;;;;;;;;;;5092056;28;20020;-55
2020/12/02 11:36:38;;;;;;;20.70;14.98;;;;;;;;;;5092248;28;20031;-56
2020/12/02 11:39:03;;;;;;;18.60;14.25;;;;;;;;;;5088687;28;20020;-54
2020/12/02 11:41:36;;;;;;;17.80;13.13;;;;;;;;;;5090576;28;20024;-56
2020/12/02 11:44:06;;;;;;;19.95;15.35;;;;;;;;;;5086935;28;20104;-53
2020/12/02 11:46:33;;;;;;;22.00;14.68;;;;;;;;;;5089390;28;20031;-53
2020/12/02 11:49:02;;;;;;;18.30;13.95;;;;;;;;;;5088774;28;20024;-57
2020/12/02 11:51:32;;;;;;;21.17;15.38;;;;;;;;;;5092187;28;20027;-57
2020/12/02 11:53:58;;;;;;;18.83;14.50;;;;;;;;;;5091822;28;20378;-57
2020/12/02 11:56:34;;;;;;;18.75;14.18;;;;;;;;;;5093717;28;20038;-55
2020/12/02 11:59:07;;;;;;;18.88;13.80;;;;;;;;;;5084774;28;20036;-58
2020/12/02 12:01:41;;;;;;;18.52;13.98;;;;;;;;;;5095550;28;20103;-57
2020/12/02 12:04:09;;;;;;;18.80;14.98;;;;;;;;;;5088838;28;20031;-57
2020/12/02 12:06:34;;;;;;;20.40;14.45;;;;;;;;;;5095912;28;20024;-58
2020/12/02 12:09:22;;;;;;;23.20;15.57;;;;;;;;;;5092341;28;20024;-57
2020/12/02 12:11:48;;;;;;;22.83;15.18;;;;;;;;;;5085617;28;20040;-56
2020/12/02 12:14:13;;;;;;;21.33;14.93;;;;;;;;;;5095754;28;20044;-56
2020/12/02 12:16:44;;;;;;;22.60;16.25;;;;;;;;;;5089847;28;20024;-59
2020/12/02 12:19:27;;;;;;;27.25;17.05;;;;;;;;;;5090963;28;20027;-57
2020/12/02 12:22:01;;;;;;;23.88;17.02;;;;;;;;;;5095475;28;20047;-57
2020/12/02 12:24:26;;;;;;;23.40;18.27;;;;;;;;;;5094602;28;20028;-57
2020/12/02 12:26:53;;;;;;;24.25;17.70;;;;;;;;;;5095233;28;20028;-56
2020/12/02 12:29:19;;;;;;;27.77;19.38;;;;;;;;;;5092325;28;20031;-56
2020/12/02 12:31:50;;;;;;;24.20;16.80;;;;;;;;;;5095426;28;20020;-53
2020/12/02 12:34:15;;;;;;;29.50;20.57;;;;;;;;;;5095161;28;20099;-54
2020/12/02 12:36:41;;;;;;;27.13;18.17;;;;;;;;;;5095241;28;20060;-57
2020/12/02 12:39:17;;;;;;;30.07;20.00;;;;;;;;;;5091294;28;20416;-55
2020/12/02 12:41:44;;;;;;;32.17;20.77;;;;;;;;;;5095412;28;20486;-55
2020/12/02 12:44:14;;;;;;;34.27;20.50;;;;;;;;;;5094831;28;20023;-53
2020/12/02 12:46:42;;;;;;;32.17;22.00;;;;;;;;;;5094632;28;20024;-55
2020/12/02 12:49:11;;;;;;;34.33;21.70;;;;;;;;;;5092676;28;20050;-56
2020/12/02 12:51:36;;;;;;;32.30;20.43;;;;;;;;;;5093889;28;20111;-55
2020/12/02 12:54:03;;;;;;;34.87;22.43;;;;;;;;;;5094436;28;20066;-56
2020/12/02 12:56:29;;;;;;;36.47;21.47;;;;;;;;;;5095132;28;20111;-53
2020/12/02 12:58:54;;;;;;;31.57;18.83;;;;;;;;;;5092530;28;20095;-56
2020/12/02 13:01:20;;;;;;;32.90;19.10;;;;;;;;;;5094714;28;20016;-55
2020/12/02 13:03:45;;;;;;;32.20;19.27;;;;;;;;;;5088389;28;20471;-58
2020/12/02 13:06:13;;;;;;;31.63;18.73;;;;;;;;;;5094561;28;20476;-55
2020/12/02 13:08:40;;;;;;;35.37;21.63;;;;;;;;;;5083527;28;20378;-56
2020/12/02 13:11:16;;;;;;;36.50;20.17;;;;;;;;;;5094798;28;20073;-53
2020/12/02 13:13:56;;;;;;;35.00;21.53;;;;;;;;;;5094829;28;20032;-55
2020/12/02 13:16:27;;;;;;;40.50;23.53;;;;;;;;;;5094513;28;20032;-53
2020/12/02 13:19:05;;;;;;;36.23;21.97;;;;;;;;;;5092475;28;20474;-58
2020/12/02 13:21:37;;;;;;;36.77;22.17;;;;;;;;;;5087020;28;20475;-56
2020/12/02 13:24:05;;;;;;;38.77;21.73;;;;;;;;;;5093094;28;20031;-55
2020/12/02 13:26:31;;;;;;;37.03;20.50;;;;;;;;;;5094211;28;20024;-56
2020/12/02 13:29:14;;;;;;;36.67;19.23;;;;;;;;;;5091916;28;20024;-55
2020/12/02 13:31:43;;;;;;;36.30;21.90;;;;;;;;;;5088942;28;20553;-53
2020/12/02 13:34:09;;;;;;;39.53;22.70;;;;;;;;;;5092882;28;20024;-56
2020/12/02 13:36:36;;;;;;;44.03;24.60;;;;;;;;;;5094353;28;20024;-58
2020/12/02 13:39:03;;;;;;;38.33;21.13;;;;;;;;;;5090524;28;20028;-53
2020/12/02 13:41:32;;;;;;;38.33;22.23;;;;;;;;;;5093360;28;20054;-55
2020/12/02 13:43:59;;;;;;;42.83;23.17;;;;;;;;;;5092854;28;20405;-56
2020/12/02 13:46:24;;;;;;;41.30;24.10;;;;;;;;;;5093575;28;20095;-57
2020/12/02 13:48:51;;;;;;;43.40;24.50;;;;;;;;;;5089218;28;20480;-55
2020/12/02 13:51:26;;;;;;;37.77;20.73;;;;;;;;;;5094098;28;20012;-54
2020/12/02 13:53:57;;;;;;;40.63;20.48;;;;;;;;;;5093613;28;20032;-57
2020/12/02 13:56:29;;;;;;;40.40;24.93;;;;;;;;;;5093930;28;20110;-56
2020/12/02 13:59:13;;;;;;;40.43;23.07;;;;;;;;;;5090614;28;20352;-55
2020/12/02 14:01:42;;;;;;;39.23;22.70;;;;;;;;;;5093448;28;20026;-55
2020/12/02 14:04:19;;;;;;;39.80;23.77;;;;;;;;;;5093692;28;20543;-55
2020/12/02 14:07:05;;;;;;;36.10;18.63;;;;;;;;;;5093441;28;20031;-55
2020/12/02 14:09:34;;;;;;;35.00;17.87;;;;;;;;;;5090273;28;20024;-56
2020/12/02 14:12:01;;;;;;;35.23;19.47;;;;;;;;;;5093217;28;20166;-52
2020/12/02 14:14:28;;;;;;;36.43;20.27;;;;;;;;;;5093181;28;20490;-56
2020/12/02 14:16:54;;;;;;;35.67;19.03;;;;;;;;;;5088711;28;20080;-55
2020/12/02 14:19:19;;;;;;;36.97;19.63;;;;;;;;;;5089128;28;20103;-56
2020/12/02 14:21:44;;;;;;;36.87;20.07;;;;;;;;;;5093372;28;20044;-56
2020/12/02 14:24:10;;;;;;;41.57;23.07;;;;;;;;;;5092180;28;20039;-55
2020/12/02 14:26:35;;;;;;;38.87;21.33;;;;;;;;;;5093032;28;20027;-55